sensor_id;sensor_type;location;lat;lon;timestamp;temperature;humidity
51595;DHT22;37677;53.254;6.594;2022-09-20T00:01:49;11.00;1.00
51595;DHT22;37677;53.254;6.594;2022-09-20T00:04:15;10.20;1.00
51595;DHT22;37677;53.254;6.594;2022-09-20T00:06:40;10.40;1.00
51595;DHT22;37677;53.254;6.594;2022-09-20T00:09:06;10.10;1.00
51595;DHT22;37677;53.254;6.594;2022-09-20T00:11:33;10.10;1.00
51595;DHT22;37677;53.254;6.594;2022-09-20T00:14:00;10.10;1.00
51595;DHT22;37677;53.254;6.594;2022-09-20T00:16:29;10.10;1.00
51595;DHT22;37677;53.254;6.594;2022-09-20T00:18:57;10.10;1.00
51595;DHT22;37677;53.254;6.594;2022-09-20T00:21:25;10.40;1.00
51595;DHT22;37677;53.254;6.594;2022-09-20T00:23:51;10.10;1.00
51595;DHT22;37677;53.254;6.594;2022-09-20T00:26:17;10.00;1.00
51595;DHT22;37677;53.254;6.594;2022-09-20T00:28:43;10.00;1.00
51595;DHT22;37677;53.254;6.594;2022-09-20T00:31:11;10.80;1.00
51595;DHT22;37677;53.254;6.594;2022-09-20T00:33:37;9.90;1.00
51595;DHT22;37677;53.254;6.594;2022-09-20T00:36:21;10.00;1.00
51595;DHT22;37677;53.254;6.594;2022-09-20T00:38:47;10.00;1.00
51595;DHT22;37677;53.254;6.594;2022-09-20T00:41:13;10.60;1.00
51595;DHT22;37677;53.254;6.594;2022-09-20T00:43:46;9.90;1.00
51595;DHT22;37677;53.254;6.594;2022-09-20T00:48:55;9.90;1.00
51595;DHT22;37677;53.254;6.594;2022-09-20T00:51:29;9.90;1.00
51595;DHT22;37677;53.254;6.594;2022-09-20T00:53:58;9.80;1.00
51595;DHT22;37677;53.254;6.594;2022-09-20T00:56:29;9.70;1.00
51595;DHT22;37677;53.254;6.594;2022-09-20T00:59:18;10.20;1.00
51595;DHT22;37677;53.254;6.594;2022-09-20T01:01:49;9.60;1.00
51595;DHT22;37677;53.254;6.594;2022-09-20T01:04:17;9.60;1.00
51595;DHT22;37677;53.254;6.594;2022-09-20T01:06:46;9.60;1.00
51595;DHT22;37677;53.254;6.594;2022-09-20T01:09:13;9.50;1.00
51595;DHT22;37677;53.254;6.594;2022-09-20T01:11:40;9.60;1.00
51595;DHT22;37677;53.254;6.594;2022-09-20T01:14:06;9.50;1.00
51595;DHT22;37677;53.254;6.594;2022-09-20T01:16:33;9.60;1.00
51595;DHT22;37677;53.254;6.594;2022-09-20T01:19:01;9.90;1.00
51595;DHT22;37677;53.254;6.594;2022-09-20T01:21:30;9.80;1.00
51595;DHT22;37677;53.254;6.594;2022-09-20T01:30:04;9.50;1.00
51595;DHT22;37677;53.254;6.594;2022-09-20T01:35:07;9.40;1.00
51595;DHT22;37677;53.254;6.594;2022-09-20T01:44:26;9.30;1.00
51595;DHT22;37677;53.254;6.594;2022-09-20T01:47:06;9.30;1.00
51595;DHT22;37677;53.254;6.594;2022-09-20T01:52:54;9.30;1.00
51595;DHT22;37677;53.254;6.594;2022-09-20T01:55:59;9.20;1.00
51595;DHT22;37677;53.254;6.594;2022-09-20T01:58:44;9.20;1.00
51595;DHT22;37677;53.254;6.594;2022-09-20T02:20:33;9.00;1.00
51595;DHT22;37677;53.254;6.594;2022-09-20T02:23:20;9.00;1.00
51595;DHT22;37677;53.254;6.594;2022-09-20T02:25:50;9.00;1.00
51595;DHT22;37677;53.254;6.594;2022-09-20T02:28:36;9.00;1.00
51595;DHT22;37677;53.254;6.594;2022-09-20T02:39:44;8.90;1.00
51595;DHT22;37677;53.254;6.594;2022-09-20T02:42:33;8.90;1.00
51595;DHT22;37677;53.254;6.594;2022-09-20T02:47:52;8.80;1.00
51595;DHT22;37677;53.254;6.594;2022-09-20T03:09:34;8.90;1.00
51595;DHT22;37677;53.254;6.594;2022-09-20T03:14:45;8.90;1.00
51595;DHT22;37677;53.254;6.594;2022-09-20T03:17:48;8.90;1.00
51595;DHT22;37677;53.254;6.594;2022-09-20T03:34:15;8.90;1.00
51595;DHT22;37677;53.254;6.594;2022-09-20T03:42:23;8.80;1.00
51595;DHT22;37677;53.254;6.594;2022-09-20T03:53:29;8.80;1.00
51595;DHT22;37677;53.254;6.594;2022-09-20T04:07:19;8.90;1.00
51595;DHT22;37677;53.254;6.594;2022-09-20T04:26:07;9.20;1.00
51595;DHT22;37677;53.254;6.594;2022-09-20T04:28:42;10.30;1.00
51595;DHT22;37677;53.254;6.594;2022-09-20T04:33:47;9.90;1.00
51595;DHT22;37677;53.254;6.594;2022-09-20T04:39:51;8.90;1.00
51595;DHT22;37677;53.254;6.594;2022-09-20T04:42:19;8.90;1.00
51595;DHT22;37677;53.254;6.594;2022-09-20T04:50:22;8.80;1.00
51595;DHT22;37677;53.254;6.594;2022-09-20T04:55:59;8.80;1.00
51595;DHT22;37677;53.254;6.594;2022-09-20T04:58:47;8.90;1.00
51595;DHT22;37677;53.254;6.594;2022-09-20T05:15:20;9.00;1.00
51595;DHT22;37677;53.254;6.594;2022-09-20T05:20:45;9.00;1.00
51595;DHT22;37677;53.254;6.594;2022-09-20T05:42:50;9.60;1.00
51595;DHT22;37677;53.254;6.594;2022-09-20T05:48:19;9.70;1.00
51595;DHT22;37677;53.254;6.594;2022-09-20T05:51:12;10.30;1.00
51595;DHT22;37677;53.254;6.594;2022-09-20T05:59:18;9.70;1.00
51595;DHT22;37677;53.254;6.594;2022-09-20T06:04:28;9.60;1.00
51595;DHT22;37677;53.254;6.594;2022-09-20T06:10:14;9.70;1.00
51595;DHT22;37677;53.254;6.594;2022-09-20T06:12:56;9.70;1.00
51595;DHT22;37677;53.254;6.594;2022-09-20T06:15:36;9.90;1.00
51595;DHT22;37677;53.254;6.594;2022-09-20T06:18:20;10.00;1.00
51595;DHT22;37677;53.254;6.594;2022-09-20T06:21:19;10.10;1.00
51595;DHT22;37677;53.254;6.594;2022-09-20T06:23:47;10.20;1.00
51595;DHT22;37677;53.254;6.594;2022-09-20T06:26:19;10.60;1.00
51595;DHT22;37677;53.254;6.594;2022-09-20T06:28:54;10.40;1.00
51595;DHT22;37677;53.254;6.594;2022-09-20T06:31:22;10.50;1.00
51595;DHT22;37677;53.254;6.594;2022-09-20T06:33:58;11.40;1.00
51595;DHT22;37677;53.254;6.594;2022-09-20T06:36:29;10.80;1.00
51595;DHT22;37677;53.254;6.594;2022-09-20T06:39:15;10.80;1.00
51595;DHT22;37677;53.254;6.594;2022-09-20T06:42:05;11.80;1.00
51595;DHT22;37677;53.254;6.594;2022-09-20T06:44:31;10.80;1.00
51595;DHT22;37677;53.254;6.594;2022-09-20T06:46:57;12.10;1.00
51595;DHT22;37677;53.254;6.594;2022-09-20T06:49:23;10.80;1.00
51595;DHT22;37677;53.254;6.594;2022-09-20T06:51:50;10.90;1.00
51595;DHT22;37677;53.254;6.594;2022-09-20T06:54:18;10.90;1.00
51595;DHT22;37677;53.254;6.594;2022-09-20T06:56:45;10.90;1.00
51595;DHT22;37677;53.254;6.594;2022-09-20T06:59:11;11.10;1.00
51595;DHT22;37677;53.254;6.594;2022-09-20T07:01:39;10.60;1.00
51595;DHT22;37677;53.254;6.594;2022-09-20T07:04:05;11.40;1.00
51595;DHT22;37677;53.254;6.594;2022-09-20T07:06:32;11.00;1.00
51595;DHT22;37677;53.254;6.594;2022-09-20T07:08:58;11.00;1.00
51595;DHT22;37677;53.254;6.594;2022-09-20T07:11:24;11.80;1.00
51595;DHT22;37677;53.254;6.594;2022-09-20T07:13:52;12.50;1.30
51595;DHT22;37677;53.254;6.594;2022-09-20T07:16:18;11.20;1.00
51595;DHT22;37677;53.254;6.594;2022-09-20T07:18:45;11.20;1.00
51595;DHT22;37677;53.254;6.594;2022-09-20T07:21:13;11.30;1.00
51595;DHT22;37677;53.254;6.594;2022-09-20T07:23:39;11.40;1.00
51595;DHT22;37677;53.254;6.594;2022-09-20T07:26:05;11.50;1.00
51595;DHT22;37677;53.254;6.594;2022-09-20T07:28:32;11.60;1.00
51595;DHT22;37677;53.254;6.594;2022-09-20T07:30:58;11.70;1.00
51595;DHT22;37677;53.254;6.594;2022-09-20T07:33:24;11.80;1.00
51595;DHT22;37677;53.254;6.594;2022-09-20T07:35:54;11.90;1.00
51595;DHT22;37677;53.254;6.594;2022-09-20T07:38:23;11.80;1.00
51595;DHT22;37677;53.254;6.594;2022-09-20T07:40:56;12.10;1.00
51595;DHT22;37677;53.254;6.594;2022-09-20T07:43:22;13.40;1.00
51595;DHT22;37677;53.254;6.594;2022-09-20T07:45:52;12.30;1.00
51595;DHT22;37677;53.254;6.594;2022-09-20T07:48:23;12.40;1.00
51595;DHT22;37677;53.254;6.594;2022-09-20T07:50:55;12.50;1.00
51595;DHT22;37677;53.254;6.594;2022-09-20T07:53:21;12.50;1.00
51595;DHT22;37677;53.254;6.594;2022-09-20T07:56:01;12.60;1.00
51595;DHT22;37677;53.254;6.594;2022-09-20T07:58:28;12.80;1.00
51595;DHT22;37677;53.254;6.594;2022-09-20T08:00:56;12.80;1.00
51595;DHT22;37677;53.254;6.594;2022-09-20T08:03:22;12.90;1.00
51595;DHT22;37677;53.254;6.594;2022-09-20T08:05:49;13.00;1.00
51595;DHT22;37677;53.254;6.594;2022-09-20T08:08:15;13.20;1.00
51595;DHT22;37677;53.254;6.594;2022-09-20T08:10:45;13.30;1.00
51595;DHT22;37677;53.254;6.594;2022-09-20T08:13:12;13.60;1.00
51595;DHT22;37677;53.254;6.594;2022-09-20T08:15:39;14.70;1.00
51595;DHT22;37677;53.254;6.594;2022-09-20T08:18:05;14.10;99.90
51595;DHT22;37677;53.254;6.594;2022-09-20T08:20:35;14.10;99.90
51595;DHT22;37677;53.254;6.594;2022-09-20T08:23:01;13.80;24.20
51595;DHT22;37677;53.254;6.594;2022-09-20T08:25:27;14.00;21.40
51595;DHT22;37677;53.254;6.594;2022-09-20T08:27:54;14.40;99.90
51595;DHT22;37677;53.254;6.594;2022-09-20T08:30:20;14.00;90.20
51595;DHT22;37677;53.254;6.594;2022-09-20T08:32:45;14.40;99.90
51595;DHT22;37677;53.254;6.594;2022-09-20T08:35:11;14.60;1.00
51595;DHT22;37677;53.254;6.594;2022-09-20T08:37:40;14.50;99.90
51595;DHT22;37677;53.254;6.594;2022-09-20T08:40:06;15.30;1.00
51595;DHT22;37677;53.254;6.594;2022-09-20T08:42:35;14.40;99.90
51595;DHT22;37677;53.254;6.594;2022-09-20T08:45:04;14.40;99.90
51595;DHT22;37677;53.254;6.594;2022-09-20T08:47:33;14.30;99.90
51595;DHT22;37677;53.254;6.594;2022-09-20T08:50:04;14.20;1.00
51595;DHT22;37677;53.254;6.594;2022-09-20T08:52:33;14.10;99.90
51595;DHT22;37677;53.254;6.594;2022-09-20T08:55:01;14.00;96.80
51595;DHT22;37677;53.254;6.594;2022-09-20T08:57:30;13.90;99.90
51595;DHT22;37677;53.254;6.594;2022-09-20T09:00:02;14.00;99.90
51595;DHT22;37677;53.254;6.594;2022-09-20T09:02:30;14.10;1.00
51595;DHT22;37677;53.254;6.594;2022-09-20T09:04:56;14.40;99.90
51595;DHT22;37677;53.254;6.594;2022-09-20T09:07:24;14.60;1.00
51595;DHT22;37677;53.254;6.594;2022-09-20T09:09:52;14.90;99.90
51595;DHT22;37677;53.254;6.594;2022-09-20T09:12:27;15.00;99.90
51595;DHT22;37677;53.254;6.594;2022-09-20T09:14:59;15.30;72.10
51595;DHT22;37677;53.254;6.594;2022-09-20T09:17:28;15.50;99.90
51595;DHT22;37677;53.254;6.594;2022-09-20T09:19:56;15.90;99.90
51595;DHT22;37677;53.254;6.594;2022-09-20T09:22:31;15.80;99.90
51595;DHT22;37677;53.254;6.594;2022-09-20T09:30:28;15.50;99.90
51595;DHT22;37677;53.254;6.594;2022-09-20T09:33:14;15.90;95.30
51595;DHT22;37677;53.254;6.594;2022-09-20T09:35:40;15.40;36.50
51595;DHT22;37677;53.254;6.594;2022-09-20T09:38:25;16.00;60.70
51595;DHT22;37677;53.254;6.594;2022-09-20T09:40:57;15.50;99.90
51595;DHT22;37677;53.254;6.594;2022-09-20T09:43:32;15.30;53.80
51595;DHT22;37677;53.254;6.594;2022-09-20T09:46:23;15.20;1.00
51595;DHT22;37677;53.254;6.594;2022-09-20T09:49:13;15.20;1.00
51595;DHT22;37677;53.254;6.594;2022-09-20T09:51:40;15.20;1.00
51595;DHT22;37677;53.254;6.594;2022-09-20T09:54:16;15.20;1.00
51595;DHT22;37677;53.254;6.594;2022-09-20T10:02:17;15.30;99.90
51595;DHT22;37677;53.254;6.594;2022-09-20T10:07:36;15.60;99.90
51595;DHT22;37677;53.254;6.594;2022-09-20T10:10:37;15.70;99.90
51595;DHT22;37677;53.254;6.594;2022-09-20T10:19:26;15.80;99.90
51595;DHT22;37677;53.254;6.594;2022-09-20T10:24:51;16.10;99.90
51595;DHT22;37677;53.254;6.594;2022-09-20T10:30:16;16.50;99.90
51595;DHT22;37677;53.254;6.594;2022-09-20T10:41:14;15.90;99.90
51595;DHT22;37677;53.254;6.594;2022-09-20T10:46:54;15.90;99.90
51595;DHT22;37677;53.254;6.594;2022-09-20T10:49:40;16.00;78.60
51595;DHT22;37677;53.254;6.594;2022-09-20T10:52:19;15.90;70.50
51595;DHT22;37677;53.254;6.594;2022-09-20T10:55:22;15.90;1.00
51595;DHT22;37677;53.254;6.594;2022-09-20T10:58:07;15.70;1.00
51595;DHT22;37677;53.254;6.594;2022-09-20T11:03:35;15.60;6.20
51595;DHT22;37677;53.254;6.594;2022-09-20T11:06:18;15.70;1.00
51595;DHT22;37677;53.254;6.594;2022-09-20T11:08:47;15.80;1.00
51595;DHT22;37677;53.254;6.594;2022-09-20T11:11:25;16.10;1.00
51595;DHT22;37677;53.254;6.594;2022-09-20T11:14:03;16.20;99.90
51595;DHT22;37677;53.254;6.594;2022-09-20T11:21:48;16.30;99.90
51595;DHT22;37677;53.254;6.594;2022-09-20T11:24:30;16.40;99.90
51595;DHT22;37677;53.254;6.594;2022-09-20T11:27:01;16.70;99.90
51595;DHT22;37677;53.254;6.594;2022-09-20T11:29:35;17.10;99.90
51595;DHT22;37677;53.254;6.594;2022-09-20T11:32:16;17.40;99.90
51595;DHT22;37677;53.254;6.594;2022-09-20T11:34:58;17.50;99.90
51595;DHT22;37677;53.254;6.594;2022-09-20T11:37:31;17.60;99.90
51595;DHT22;37677;53.254;6.594;2022-09-20T11:40:03;17.70;99.90
51595;DHT22;37677;53.254;6.594;2022-09-20T11:42:33;17.30;99.90
51595;DHT22;37677;53.254;6.594;2022-09-20T11:45:02;17.10;99.90
51595;DHT22;37677;53.254;6.594;2022-09-20T11:50:06;16.60;99.90
51595;DHT22;37677;53.254;6.594;2022-09-20T11:52:58;16.40;99.90
51595;DHT22;37677;53.254;6.594;2022-09-20T11:55:50;16.30;99.90
51595;DHT22;37677;53.254;6.594;2022-09-20T11:58:21;16.20;99.90
51595;DHT22;37677;53.254;6.594;2022-09-20T12:00:50;16.10;99.90
51595;DHT22;37677;53.254;6.594;2022-09-20T12:06:16;15.80;99.90
51595;DHT22;37677;53.254;6.594;2022-09-20T12:08:48;15.70;99.90
51595;DHT22;37677;53.254;6.594;2022-09-20T12:11:15;15.60;99.90
51595;DHT22;37677;53.254;6.594;2022-09-20T12:14:14;15.40;99.90
51595;DHT22;37677;53.254;6.594;2022-09-20T12:16:44;15.50;99.90
51595;DHT22;37677;53.254;6.594;2022-09-20T12:24:33;15.60;99.90
51595;DHT22;37677;53.254;6.594;2022-09-20T12:30:13;16.00;99.90
51595;DHT22;37677;53.254;6.594;2022-09-20T12:32:55;16.30;99.90
51595;DHT22;37677;53.254;6.594;2022-09-20T12:41:10;16.60;99.90
51595;DHT22;37677;53.254;6.594;2022-09-20T12:43:57;16.40;99.90
51595;DHT22;37677;53.254;6.594;2022-09-20T12:46:31;16.50;99.90
51595;DHT22;37677;53.254;6.594;2022-09-20T12:49:21;16.50;99.90
51595;DHT22;37677;53.254;6.594;2022-09-20T12:58:47;16.90;99.90
51595;DHT22;37677;53.254;6.594;2022-09-20T13:03:43;16.90;99.90
51595;DHT22;37677;53.254;6.594;2022-09-20T13:11:51;16.60;99.90
51595;DHT22;37677;53.254;6.594;2022-09-20T13:14:23;16.60;99.90
51595;DHT22;37677;53.254;6.594;2022-09-20T13:19:45;16.50;99.90
51595;DHT22;37677;53.254;6.594;2022-09-20T13:22:35;16.50;99.90
51595;DHT22;37677;53.254;6.594;2022-09-20T13:25:09;16.50;99.90
51595;DHT22;37677;53.254;6.594;2022-09-20T13:27:59;16.50;99.90
51595;DHT22;37677;53.254;6.594;2022-09-20T13:30:28;16.50;99.90
51595;DHT22;37677;53.254;6.594;2022-09-20T13:32:56;16.50;99.90
51595;DHT22;37677;53.254;6.594;2022-09-20T13:35:24;16.60;99.90
51595;DHT22;37677;53.254;6.594;2022-09-20T13:38:04;16.50;99.90
51595;DHT22;37677;53.254;6.594;2022-09-20T13:40:42;16.40;99.90
51595;DHT22;37677;53.254;6.594;2022-09-20T13:43:25;16.30;99.90
51595;DHT22;37677;53.254;6.594;2022-09-20T13:46:05;16.30;99.90
51595;DHT22;37677;53.254;6.594;2022-09-20T13:48:31;16.30;99.90
51595;DHT22;37677;53.254;6.594;2022-09-20T13:50:57;16.20;99.90
51595;DHT22;37677;53.254;6.594;2022-09-20T13:53:25;16.10;99.90
51595;DHT22;37677;53.254;6.594;2022-09-20T13:55:52;16.00;99.90
51595;DHT22;37677;53.254;6.594;2022-09-20T14:00:57;16.10;99.90
51595;DHT22;37677;53.254;6.594;2022-09-20T14:03:25;16.00;99.90
51595;DHT22;37677;53.254;6.594;2022-09-20T14:05:56;16.00;99.90
51595;DHT22;37677;53.254;6.594;2022-09-20T14:08:47;15.90;99.90
51595;DHT22;37677;53.254;6.594;2022-09-20T14:13:46;15.90;99.90
51595;DHT22;37677;53.254;6.594;2022-09-20T14:16:13;16.00;99.90
51595;DHT22;37677;53.254;6.594;2022-09-20T14:18:41;16.10;99.90
51595;DHT22;37677;53.254;6.594;2022-09-20T14:21:08;16.20;99.90
51595;DHT22;37677;53.254;6.594;2022-09-20T14:23:57;16.10;99.90
51595;DHT22;37677;53.254;6.594;2022-09-20T14:26:29;16.10;99.90
51595;DHT22;37677;53.254;6.594;2022-09-20T14:32:00;15.80;99.90
51595;DHT22;37677;53.254;6.594;2022-09-20T14:34:29;15.70;99.90
51595;DHT22;37677;53.254;6.594;2022-09-20T14:37:11;15.70;1.00
51595;DHT22;37677;53.254;6.594;2022-09-20T14:39:47;15.70;19.50
51595;DHT22;37677;53.254;6.594;2022-09-20T14:44:57;15.70;95.80
51595;DHT22;37677;53.254;6.594;2022-09-20T14:47:34;15.70;13.30
51595;DHT22;37677;53.254;6.594;2022-09-20T14:50:01;15.70;1.00
51595;DHT22;37677;53.254;6.594;2022-09-20T14:52:34;15.60;1.00
51595;DHT22;37677;53.254;6.594;2022-09-20T14:55:22;15.60;1.00
51595;DHT22;37677;53.254;6.594;2022-09-20T14:57:56;15.50;1.00
51595;DHT22;37677;53.254;6.594;2022-09-20T15:00:23;15.30;1.00
51595;DHT22;37677;53.254;6.594;2022-09-20T15:02:49;15.30;1.00
51595;DHT22;37677;53.254;6.594;2022-09-20T15:05:23;15.40;1.00
51595;DHT22;37677;53.254;6.594;2022-09-20T15:07:54;15.30;1.00
51595;DHT22;37677;53.254;6.594;2022-09-20T15:10:21;15.30;1.00
51595;DHT22;37677;53.254;6.594;2022-09-20T15:12:47;15.30;1.00
51595;DHT22;37677;53.254;6.594;2022-09-20T15:15:15;15.30;1.00
51595;DHT22;37677;53.254;6.594;2022-09-20T15:17:42;15.20;1.00
51595;DHT22;37677;53.254;6.594;2022-09-20T15:20:13;15.20;1.00
51595;DHT22;37677;53.254;6.594;2022-09-20T15:22:40;15.20;1.00
51595;DHT22;37677;53.254;6.594;2022-09-20T15:25:07;15.10;1.00
51595;DHT22;37677;53.254;6.594;2022-09-20T15:27:36;15.10;1.00
51595;DHT22;37677;53.254;6.594;2022-09-20T15:30:02;15.10;1.00
51595;DHT22;37677;53.254;6.594;2022-09-20T15:32:27;15.10;1.00
51595;DHT22;37677;53.254;6.594;2022-09-20T15:34:53;15.10;1.00
51595;DHT22;37677;53.254;6.594;2022-09-20T15:37:19;15.10;1.00
51595;DHT22;37677;53.254;6.594;2022-09-20T15:39:44;15.10;1.00
51595;DHT22;37677;53.254;6.594;2022-09-20T15:42:10;15.10;1.00
51595;DHT22;37677;53.254;6.594;2022-09-20T15:44:35;15.60;1.00
51595;DHT22;37677;53.254;6.594;2022-09-20T15:47:01;14.90;1.00
51595;DHT22;37677;53.254;6.594;2022-09-20T15:49:29;15.00;1.00
51595;DHT22;37677;53.254;6.594;2022-09-20T15:51:55;15.00;1.00
51595;DHT22;37677;53.254;6.594;2022-09-20T15:54:21;14.90;1.00
51595;DHT22;37677;53.254;6.594;2022-09-20T15:56:47;14.90;1.00
51595;DHT22;37677;53.254;6.594;2022-09-20T15:59:13;14.80;1.00
51595;DHT22;37677;53.254;6.594;2022-09-20T16:01:44;14.90;1.00
51595;DHT22;37677;53.254;6.594;2022-09-20T16:04:15;14.70;1.00
51595;DHT22;37677;53.254;6.594;2022-09-20T16:06:44;14.80;1.00
51595;DHT22;37677;53.254;6.594;2022-09-20T16:09:10;14.70;1.00
51595;DHT22;37677;53.254;6.594;2022-09-20T16:11:36;14.70;27.10
51595;DHT22;37677;53.254;6.594;2022-09-20T16:14:02;15.00;24.50
51595;DHT22;37677;53.254;6.594;2022-09-20T16:16:29;14.90;60.40
51595;DHT22;37677;53.254;6.594;2022-09-20T16:18:55;14.70;72.10
51595;DHT22;37677;53.254;6.594;2022-09-20T16:21:41;14.60;94.20
51595;DHT22;37677;53.254;6.594;2022-09-20T16:24:08;14.50;99.90
51595;DHT22;37677;53.254;6.594;2022-09-20T16:26:35;14.50;99.90
51595;DHT22;37677;53.254;6.594;2022-09-20T16:29:01;14.50;99.90
51595;DHT22;37677;53.254;6.594;2022-09-20T16:34:02;14.50;99.90
51595;DHT22;37677;53.254;6.594;2022-09-20T16:36:32;14.60;99.90
51595;DHT22;37677;53.254;6.594;2022-09-20T16:38:58;14.50;99.90
51595;DHT22;37677;53.254;6.594;2022-09-20T16:41:25;14.40;1.00
51595;DHT22;37677;53.254;6.594;2022-09-20T16:43:52;14.40;1.00
51595;DHT22;37677;53.254;6.594;2022-09-20T16:46:19;14.40;1.00
51595;DHT22;37677;53.254;6.594;2022-09-20T16:48:46;14.50;91.00
51595;DHT22;37677;53.254;6.594;2022-09-20T16:51:13;14.30;99.90
51595;DHT22;37677;53.254;6.594;2022-09-20T16:53:39;14.40;99.90
51595;DHT22;37677;53.254;6.594;2022-09-20T16:56:05;14.40;99.90
51595;DHT22;37677;53.254;6.594;2022-09-20T16:58:32;14.50;99.90
51595;DHT22;37677;53.254;6.594;2022-09-20T17:01:06;14.50;99.90
51595;DHT22;37677;53.254;6.594;2022-09-20T17:06:03;14.20;1.00
51595;DHT22;37677;53.254;6.594;2022-09-20T17:08:30;14.20;1.00
51595;DHT22;37677;53.254;6.594;2022-09-20T17:11:01;14.20;1.00
51595;DHT22;37677;53.254;6.594;2022-09-20T17:13:30;14.10;88.70
51595;DHT22;37677;53.254;6.594;2022-09-20T17:16:04;14.40;99.90
51595;DHT22;37677;53.254;6.594;2022-09-20T17:18:30;14.10;1.00
51595;DHT22;37677;53.254;6.594;2022-09-20T17:20:55;14.10;99.90
51595;DHT22;37677;53.254;6.594;2022-09-20T17:23:27;14.00;99.90
51595;DHT22;37677;53.254;6.594;2022-09-20T17:26:15;14.00;1.00
51595;DHT22;37677;53.254;6.594;2022-09-20T17:28:46;13.90;99.90
51595;DHT22;37677;53.254;6.594;2022-09-20T17:31:15;13.90;99.90
51595;DHT22;37677;53.254;6.594;2022-09-20T17:33:42;13.70;1.00
51595;DHT22;37677;53.254;6.594;2022-09-20T17:36:12;13.70;95.00
51595;DHT22;37677;53.254;6.594;2022-09-20T17:38:38;13.60;99.90
51595;DHT22;37677;53.254;6.594;2022-09-20T17:43:39;13.50;99.90
51595;DHT22;37677;53.254;6.594;2022-09-20T17:46:17;13.40;99.90
51595;DHT22;37677;53.254;6.594;2022-09-20T17:48:53;14.50;1.00
51595;DHT22;37677;53.254;6.594;2022-09-20T17:51:21;13.20;1.00
51595;DHT22;37677;53.254;6.594;2022-09-20T17:53:48;13.80;1.00
51595;DHT22;37677;53.254;6.594;2022-09-20T17:56:15;13.00;29.30
51595;DHT22;37677;53.254;6.594;2022-09-20T17:58:41;13.40;99.90
51595;DHT22;37677;53.254;6.594;2022-09-20T18:01:09;12.90;99.90
51595;DHT22;37677;53.254;6.594;2022-09-20T18:03:36;12.80;99.90
51595;DHT22;37677;53.254;6.594;2022-09-20T18:06:17;12.80;99.90
51595;DHT22;37677;53.254;6.594;2022-09-20T18:08:48;13.30;99.90
51595;DHT22;37677;53.254;6.594;2022-09-20T18:11:16;14.20;99.90
51595;DHT22;37677;53.254;6.594;2022-09-20T18:13:42;12.50;99.90
51595;DHT22;37677;53.254;6.594;2022-09-20T18:16:10;13.70;99.90
51595;DHT22;37677;53.254;6.594;2022-09-20T18:18:37;13.00;99.90
51595;DHT22;37677;53.254;6.594;2022-09-20T18:21:11;12.50;99.90
51595;DHT22;37677;53.254;6.594;2022-09-20T18:23:37;12.40;99.90
51595;DHT22;37677;53.254;6.594;2022-09-20T18:26:17;12.90;99.90
51595;DHT22;37677;53.254;6.594;2022-09-20T18:28:49;12.30;1.00
51595;DHT22;37677;53.254;6.594;2022-09-20T18:31:15;12.50;1.00
51595;DHT22;37677;53.254;6.594;2022-09-20T18:33:42;12.40;1.00
51595;DHT22;37677;53.254;6.594;2022-09-20T18:36:08;12.10;1.00
51595;DHT22;37677;53.254;6.594;2022-09-20T18:38:33;12.10;1.00
51595;DHT22;37677;53.254;6.594;2022-09-20T18:41:00;13.40;1.00
51595;DHT22;37677;53.254;6.594;2022-09-20T18:43:30;12.30;1.00
51595;DHT22;37677;53.254;6.594;2022-09-20T18:45:57;12.00;1.00
51595;DHT22;37677;53.254;6.594;2022-09-20T18:48:31;12.00;1.00
51595;DHT22;37677;53.254;6.594;2022-09-20T18:51:02;11.90;1.00
51595;DHT22;37677;53.254;6.594;2022-09-20T18:53:32;11.60;1.00
51595;DHT22;37677;53.254;6.594;2022-09-20T18:58:41;11.80;1.00
51595;DHT22;37677;53.254;6.594;2022-09-20T19:09:38;12.60;1.00
51595;DHT22;37677;53.254;6.594;2022-09-20T19:20:49;11.60;1.00
51595;DHT22;37677;53.254;6.594;2022-09-20T19:26:05;11.50;1.00
51595;DHT22;37677;53.254;6.594;2022-09-20T19:28:32;11.40;1.00
51595;DHT22;37677;53.254;6.594;2022-09-20T19:30:58;11.50;1.00
51595;DHT22;37677;53.254;6.594;2022-09-20T19:33:23;11.40;1.00
51595;DHT22;37677;53.254;6.594;2022-09-20T19:35:50;11.40;1.00
51595;DHT22;37677;53.254;6.594;2022-09-20T19:43:58;11.40;1.00
51595;DHT22;37677;53.254;6.594;2022-09-20T19:46:37;11.30;1.00
51595;DHT22;37677;53.254;6.594;2022-09-20T19:51:52;11.30;1.00
51595;DHT22;37677;53.254;6.594;2022-09-20T19:54:20;11.20;1.00
51595;DHT22;37677;53.254;6.594;2022-09-20T19:56:52;11.20;1.00
51595;DHT22;37677;53.254;6.594;2022-09-20T19:59:20;12.00;1.00
51595;DHT22;37677;53.254;6.594;2022-09-20T20:01:46;11.20;1.00
51595;DHT22;37677;53.254;6.594;2022-09-20T20:04:12;11.10;1.00
51595;DHT22;37677;53.254;6.594;2022-09-20T20:06:53;11.10;1.00
51595;DHT22;37677;53.254;6.594;2022-09-20T20:10:40;11.10;1.00
51595;DHT22;37677;53.254;6.594;2022-09-20T20:12:41;11.00;1.00
51595;DHT22;37677;53.254;6.594;2022-09-20T20:15:44;11.00;1.00
51595;DHT22;37677;53.254;6.594;2022-09-20T20:20:57;10.90;1.00
51595;DHT22;37677;53.254;6.594;2022-09-20T20:26:21;10.90;1.00
51595;DHT22;37677;53.254;6.594;2022-09-20T20:28:48;10.90;1.00
51595;DHT22;37677;53.254;6.594;2022-09-20T20:31:14;10.90;1.00
51595;DHT22;37677;53.254;6.594;2022-09-20T20:33:41;10.90;1.00
51595;DHT22;37677;53.254;6.594;2022-09-20T20:36:08;10.90;1.00
51595;DHT22;37677;53.254;6.594;2022-09-20T20:38:35;11.40;1.00
51595;DHT22;37677;53.254;6.594;2022-09-20T20:41:08;10.80;1.00
51595;DHT22;37677;53.254;6.594;2022-09-20T20:43:37;10.80;1.00
51595;DHT22;37677;53.254;6.594;2022-09-20T20:46:04;11.80;1.00
51595;DHT22;37677;53.254;6.594;2022-09-20T20:48:30;11.70;1.00
51595;DHT22;37677;53.254;6.594;2022-09-20T20:53:32;10.60;1.00
51595;DHT22;37677;53.254;6.594;2022-09-20T20:56:00;10.20;1.00
51595;DHT22;37677;53.254;6.594;2022-09-20T20:58:28;10.50;1.00
51595;DHT22;37677;53.254;6.594;2022-09-20T21:01:06;10.50;1.00
51595;DHT22;37677;53.254;6.594;2022-09-20T21:03:32;10.50;1.00
51595;DHT22;37677;53.254;6.594;2022-09-20T21:05:58;11.40;1.00
51595;DHT22;37677;53.254;6.594;2022-09-20T21:08:33;10.40;1.00
51595;DHT22;37677;53.254;6.594;2022-09-20T21:11:07;10.40;1.00
51595;DHT22;37677;53.254;6.594;2022-09-20T21:13:34;10.40;1.00
51595;DHT22;37677;53.254;6.594;2022-09-20T21:16:20;10.40;1.00
51595;DHT22;37677;53.254;6.594;2022-09-20T21:18:46;11.20;1.00
51595;DHT22;37677;53.254;6.594;2022-09-20T21:23:52;10.40;1.00
51595;DHT22;37677;53.254;6.594;2022-09-20T21:26:19;10.30;1.00
51595;DHT22;37677;53.254;6.594;2022-09-20T21:28:49;10.30;1.00
51595;DHT22;37677;53.254;6.594;2022-09-20T21:31:15;10.60;1.00
51595;DHT22;37677;53.254;6.594;2022-09-20T21:33:42;10.30;1.00
51595;DHT22;37677;53.254;6.594;2022-09-20T21:36:09;10.20;1.00
51595;DHT22;37677;53.254;6.594;2022-09-20T21:38:41;10.50;1.00
51595;DHT22;37677;53.254;6.594;2022-09-20T21:41:11;10.20;1.00
51595;DHT22;37677;53.254;6.594;2022-09-20T21:43:38;10.10;1.00
51595;DHT22;37677;53.254;6.594;2022-09-20T21:46:29;10.10;1.00
51595;DHT22;37677;53.254;6.594;2022-09-20T21:48:57;10.10;1.00